Time;durP1;ratioP1;P1;durP2;ratioP2;P2;SDS_P1;SDS_P2;PMS_P1;PMS_P2;Temp;Humidity;BMP_temperature;BMP_pressure;BME280_temperature;BME280_humidity;BME280_pressure;Samples;Min_cycle;Max_cycle;Signal;HPM_P1;HPM_P2
2023/07/30 00:01:44;;;;;;;12.60;4.50;;;;;;;;;;5078245;28;20047;-79
2023/07/30 00:04:10;;;;;;;;;;;;;;;;;;5095415;28;20100;-79
2023/07/30 00:06:36;;;;;;;10.95;4.72;;;;;;;;;;5094903;28;19920;-83
2023/07/30 00:09:03;;;;;;;;;;;;;;;;;;5075556;28;20135;-79
2023/07/30 00:11:29;;;;;;;13.45;5.50;;;;;;;;;;5069390;28;19919;-79
2023/07/30 00:13:55;;;;;;;;;;;;;;;;;;5095210;28;20058;-79
2023/07/30 00:16:21;;;;;;;13.90;4.72;;;;;;;;;;5090887;28;19920;-81
2023/07/30 00:18:47;;;;;;;;;;;;;;;;;;5078912;28;20408;-80
2023/07/30 00:21:13;;;;;;;16.48;5.32;;;;;;;;;;5094867;28;19923;-79
2023/07/30 00:23:39;;;;;;;16.60;5.10;;;;;;;;;;5084754;28;20051;-81
2023/07/30 00:26:05;;;;;;;;;;;;;;;;;;5074639;28;20048;-79
2023/07/30 00:28:31;;;;;;;14.45;4.78;;;;;;;;;;5074690;28;19927;-80
2023/07/30 00:30:57;;;;;;;;;;;;;;;;;;5092375;28;20071;-79
2023/07/30 00:33:24;;;;;;;16.52;5.03;;;;;;;;;;5077932;28;20280;-79
2023/07/30 00:35:52;;;;;;;17.90;5.05;;;;;;;;;;5088524;28;20069;-79
2023/07/30 00:38:18;;;;;;;16.92;4.80;;;;;;;;;;5087560;28;20424;-79
2023/07/30 00:40:44;;;;;;;15.13;4.57;;;;;;;;;;5075368;28;20055;-79
2023/07/30 00:43:10;;;;;;;;;;;;;;;;;;5058029;28;20480;-81
2023/07/30 00:45:36;;;;;;;14.98;4.72;;;;;;;;;;5079444;28;19962;-79
2023/07/30 00:48:03;;;;;;;17.23;4.63;;;;;;;;;;5075420;28;20420;-79
2023/07/30 00:50:29;;;;;;;17.02;4.72;;;;;;;;;;5073860;28;20047;-79
2023/07/30 00:52:55;;;;;;;14.15;4.25;;;;;;;;;;5057115;28;20128;-79
2023/07/30 00:55:21;;;;;;;;;;;;;;;;;;5040904;28;20048;-79
2023/07/30 00:57:48;;;;;;;14.68;4.20;;;;;;;;;;5073159;28;20364;-79
2023/07/30 01:00:14;;;;;;;13.15;4.53;;;;;;;;;;5074100;28;20083;-79
2023/07/30 01:02:40;;;;;;;;;;;;;;;;;;5074764;28;20052;-83
2023/07/30 01:05:06;;;;;;;14.27;4.18;;;;;;;;;;5073751;28;19966;-79
2023/07/30 01:07:33;;;;;;;14.43;4.32;;;;;;;;;;5081972;28;20058;-78
2023/07/30 01:10:00;;;;;;;13.65;4.00;;;;;;;;;;5080356;28;20040;-78
2023/07/30 01:12:27;;;;;;;14.02;4.10;;;;;;;;;;5072934;28;20050;-78
2023/07/30 01:14:54;;;;;;;13.35;4.05;;;;;;;;;;5073304;28;20064;-79
2023/07/30 01:17:22;;;;;;;12.50;4.28;;;;;;;;;;5074194;28;20048;-79
2023/07/30 01:19:49;;;;;;;17.20;4.28;;;;;;;;;;5073761;28;20075;-78
2023/07/30 01:22:15;;;;;;;12.90;4.15;;;;;;;;;;5073759;28;20048;-79
2023/07/30 01:24:41;;;;;;;;;;;;;;;;;;5041357;28;20040;-79
2023/07/30 01:27:14;;;;;;;12.95;3.95;;;;;;;;;;5062619;28;19941;-78
2023/07/30 01:29:54;;;;;;;17.67;4.93;;;;;;;;;;5073948;28;20056;-79
2023/07/30 01:32:24;;;;;;;14.45;4.25;;;;;;;;;;5089934;28;20500;-78
2023/07/30 01:34:52;;;;;;;15.30;4.25;;;;;;;;;;5073063;28;20435;-78
2023/07/30 01:37:19;;;;;;;15.15;4.65;;;;;;;;;;5073114;28;20040;-79
2023/07/30 01:39:46;;;;;;;17.42;4.90;;;;;;;;;;5056591;28;20083;-83
2023/07/30 01:42:12;;;;;;;9.15;3.72;;;;;;;;;;5072584;28;20048;-78
2023/07/30 01:44:38;;;;;;;20.75;4.28;;;;;;;;;;5073908;28;20047;-78
2023/07/30 01:47:04;;;;;;;13.20;4.40;;;;;;;;;;5057213;28;20048;-78
2023/07/30 01:49:30;;;;;;;;;;;;;;;;;;5074280;28;20139;-78
2023/07/30 01:51:56;;;;;;;14.25;3.75;;;;;;;;;;5072805;28;20022;-78
2023/07/30 01:54:23;;;;;;;12.90;4.18;;;;;;;;;;5057734;28;20063;-78
2023/07/30 01:56:48;;;;;;;;;;;;;;;;;;5076165;28;20047;-78
2023/07/30 01:59:14;;;;;;;11.43;3.72;;;;;;;;;;5093810;28;19919;-79
2023/07/30 02:01:40;;;;;;;;;;;;;;;;;;5063572;28;20086;-79
2023/07/30 02:04:06;;;;;;;18.30;3.95;;;;;;;;;;5073192;28;20012;-79
2023/07/30 02:06:33;;;;;;;18.83;3.88;;;;;;;;;;5040323;28;20518;-79
2023/07/30 02:08:59;;;;;;;13.98;4.03;;;;;;;;;;5039806;28;20063;-78
2023/07/30 02:11:25;;;;;;;;;;;;;;;;;;5080710;28;20066;-79
2023/07/30 02:13:51;;;;;;;14.48;3.55;;;;;;;;;;5090606;28;20368;-78
2023/07/30 02:16:17;;;;;;;;;;;;;;;;;;5077582;28;20044;-79
2023/07/30 02:18:43;;;;;;;12.70;3.80;;;;;;;;;;5067587;28;19923;-78
2023/07/30 02:21:09;;;;;;;17.85;4.07;;;;;;;;;;5062544;28;20511;-79
2023/07/30 02:23:35;;;;;;;8.77;3.65;;;;;;;;;;5097193;28;20138;-79
2023/07/30 02:26:01;;;;;;;;;;;;;;;;;;5096639;28;20044;-79
2023/07/30 02:28:27;;;;;;;18.58;4.18;;;;;;;;;;5097535;28;20288;-79
2023/07/30 02:30:53;;;;;;;;;;;;;;;;;;5097589;28;20089;-79
2023/07/30 02:33:19;;;;;;;15.48;3.50;;;;;;;;;;5095169;28;19919;-79
2023/07/30 02:35:45;;;;;;;;;;;;;;;;;;5097500;28;20047;-78
2023/07/30 02:38:11;;;;;;;11.75;3.47;;;;;;;;;;5079723;28;20404;-79
2023/07/30 02:40:37;;;;;;;;;;;;;;;;;;5096942;28;20104;-78
2023/07/30 02:43:03;;;;;;;8.90;3.28;;;;;;;;;;5096924;28;19928;-80
2023/07/30 02:45:29;;;;;;;14.27;3.75;;;;;;;;;;5097508;28;20040;-78
2023/07/30 02:47:55;;;;;;;15.93;3.78;;;;;;;;;;5084708;28;20051;-79
2023/07/30 02:50:21;;;;;;;21.30;3.78;;;;;;;;;;5076593;28;20083;-78
2023/07/30 02:52:47;;;;;;;10.40;2.97;;;;;;;;;;5076009;28;20044;-78
2023/07/30 02:55:16;;;;;;;;;;;;;;;;;;5076618;28;20492;-80
2023/07/30 02:57:42;;;;;;;8.90;3.20;;;;;;;;;;5079441;28;19927;-79
2023/07/30 03:00:11;;;;;;;11.35;3.55;;;;;;;;;;5096400;28;20039;-79
2023/07/30 03:02:37;;;;;;;12.73;3.70;;;;;;;;;;5097155;28;20047;-79
2023/07/30 03:05:03;;;;;;;17.17;3.80;;;;;;;;;;5096325;28;20130;-79
2023/07/30 03:07:29;;;;;;;;;;;;;;;;;;5084814;28;20097;-78
2023/07/30 03:09:55;;;;;;;13.32;3.67;;;;;;;;;;5059354;28;19920;-78
2023/07/30 03:12:21;;;;;;;;;;;;;;;;;;5062750;28;20413;-79
2023/07/30 03:14:47;;;;;;;12.30;3.85;;;;;;;;;;5093329;28;19920;-78
2023/07/30 03:17:13;;;;;;;;;;;;;;;;;;5076741;28;20109;-79
2023/07/30 03:19:39;;;;;;;12.10;4.53;;;;;;;;;;5076374;28;19920;-79
2023/07/30 03:22:05;;;;;;;13.70;3.55;;;;;;;;;;5084253;28;20511;-79
2023/07/30 03:24:31;;;;;;;;;;;;;;;;;;5063856;28;20112;-78
2023/07/30 03:26:57;;;;;;;12.02;4.07;;;;;;;;;;5089095;28;20427;-79
2023/07/30 03:29:23;;;;;;;12.88;4.05;;;;;;;;;;5076203;28;20174;-79
2023/07/30 03:31:49;;;;;;;17.67;4.57;;;;;;;;;;5092902;28;20040;-78
2023/07/30 03:34:15;;;;;;;14.70;4.13;;;;;;;;;;5059030;28;20055;-79
2023/07/30 03:36:41;;;;;;;;;;;;;;;;;;5058585;28;20135;-79
2023/07/30 03:39:07;;;;;;;15.43;4.15;;;;;;;;;;5095489;28;20052;-78
2023/07/30 03:41:35;;;;;;;15.02;4.20;;;;;;;;;;5093821;28;20047;-78
2023/07/30 03:44:01;;;;;;;11.60;4.03;;;;;;;;;;5094510;28;20047;-78
2023/07/30 03:46:27;;;;;;;16.20;4.60;;;;;;;;;;5093094;28;20056;-80
2023/07/30 03:48:53;;;;;;;;;;;;;;;;;;5079410;28;20493;-81
2023/07/30 03:51:19;;;;;;;14.93;5.20;;;;;;;;;;5092703;28;19926;-78
2023/07/30 03:53:45;;;;;;;;;;;;;;;;;;5078702;28;20051;-79
2023/07/30 03:56:11;;;;;;;13.23;4.50;;;;;;;;;;5093163;28;20284;-78
2023/07/30 03:58:37;;;;;;;15.13;5.20;;;;;;;;;;5081402;28;20067;-78
2023/07/30 04:01:03;;;;;;;17.88;4.70;;;;;;;;;;5074980;28;20048;-78
2023/07/30 04:03:29;;;;;;;;;;;;;;;;;;5059313;28;20048;-78
2023/07/30 04:05:55;;;;;;;14.10;4.53;;;;;;;;;;5076360;28;19927;-81
2023/07/30 04:08:21;;;;;;;18.77;4.68;;;;;;;;;;5092836;28;20096;-79
2023/07/30 04:10:47;;;;;;;;;;;;;;;;;;5078076;28;20051;-78
2023/07/30 04:13:13;;;;;;;18.65;4.75;;;;;;;;;;5095169;28;19920;-78
2023/07/30 04:15:39;;;;;;;14.93;4.22;;;;;;;;;;5095375;28;20055;-78
2023/07/30 04:18:06;;;;;;;16.17;4.97;;;;;;;;;;5078269;28;20043;-78
2023/07/30 04:20:31;;;;;;;;;;;;;;;;;;5095622;28;20136;-78
2023/07/30 04:22:58;;;;;;;15.43;4.60;;;;;;;;;;5095273;28;19992;-83
2023/07/30 04:25:24;;;;;;;13.52;4.47;;;;;;;;;;5094346;28;20047;-79
2023/07/30 04:27:50;;;;;;;;;;;;;;;;;;5082895;28;20044;-78
2023/07/30 04:30:16;;;;;;;17.65;4.70;;;;;;;;;;5074490;28;19927;-78
2023/07/30 04:32:42;;;;;;;15.32;4.80;;;;;;;;;;5073793;28;20052;-78
2023/07/30 04:35:08;;;;;;;;;;;;;;;;;;5058339;28;20051;-79
2023/07/30 04:37:34;;;;;;;13.38;4.70;;;;;;;;;;5074834;28;20010;-78
2023/07/30 04:40:00;;;;;;;17.83;5.13;;;;;;;;;;5074135;28;20040;-84
2023/07/30 04:42:26;;;;;;;;;;;;;;;;;;5073750;28;20075;-79
2023/07/30 04:44:52;;;;;;;18.02;5.47;;;;;;;;;;5057444;28;19971;-78
2023/07/30 04:47:18;;;;;;;;;;;;;;;;;;5061029;28;20336;-78
2023/07/30 04:49:44;;;;;;;13.40;4.57;;;;;;;;;;5082837;28;20357;-78
2023/07/30 04:52:10;;;;;;;;;;;;;;;;;;5057645;28;20040;-78
2023/07/30 04:54:37;;;;;;;15.23;4.72;;;;;;;;;;5074488;28;19924;-78
2023/07/30 04:57:03;;;;;;;18.67;5.25;;;;;;;;;;5073291;28;20044;-79
2023/07/30 04:59:29;;;;;;;;;;;;;;;;;;5074916;28;20083;-79
2023/07/30 05:01:55;;;;;;;13.60;5.13;;;;;;;;;;5089260;28;19970;-78
2023/07/30 05:04:21;;;;;;;;;;;;;;;;;;5060765;28;20591;-78
2023/07/30 05:06:47;;;;;;;18.50;4.90;;;;;;;;;;5094581;28;19919;-78
2023/07/30 05:09:13;;;;;;;;;;;;;;;;;;5077827;28;20101;-78
2023/07/30 05:11:39;;;;;;;19.92;5.30;;;;;;;;;;5076344;28;19962;-78
2023/07/30 05:14:05;;;;;;;;;;;;;;;;;;5090474;28;20396;-79
2023/07/30 05:16:31;;;;;;;17.65;4.75;;;;;;;;;;5072963;28;19920;-79
2023/07/30 05:18:57;;;;;;;;;;;;;;;;;;5073996;28;20048;-79
2023/07/30 05:21:23;;;;;;;17.88;5.68;;;;;;;;;;5068937;28;19916;-79
2023/07/30 05:23:49;;;;;;;14.02;4.53;;;;;;;;;;5070594;28;20036;-78
2023/07/30 05:26:15;;;;;;;20.10;4.90;;;;;;;;;;5052865;28;20079;-79
2023/07/30 05:28:41;;;;;;;;;;;;;;;;;;5070648;28;20044;-79
2023/07/30 05:31:07;;;;;;;15.75;5.13;;;;;;;;;;5069351;28;19928;-78
2023/07/30 05:33:33;;;;;;;;;;;;;;;;;;5070488;28;20135;-78
2023/07/30 05:35:59;;;;;;;17.77;5.15;;;;;;;;;;5070223;28;20057;-80
2023/07/30 05:38:25;;;;;;;;;;;;;;;;;;5070540;28;20071;-79
2023/07/30 05:40:51;;;;;;;20.60;5.38;;;;;;;;;;5073401;28;20369;-79
2023/07/30 05:43:17;;;;;;;;;;;;;;;;;;5073340;28;20055;-78
2023/07/30 05:45:44;;;;;;;23.20;5.35;;;;;;;;;;5079997;28;19970;-79
2023/07/30 05:48:10;;;;;;;18.25;5.18;;;;;;;;;;5057110;28;20059;-79
2023/07/30 05:50:36;;;;;;;;;;;;;;;;;;5074350;28;20139;-79
2023/07/30 05:53:02;;;;;;;19.55;5.43;;;;;;;;;;5091398;28;20011;-79
2023/07/30 05:55:28;;;;;;;;;;;;;;;;;;5076380;28;20400;-79
2023/07/30 05:57:55;;;;;;;26.27;5.43;;;;;;;;;;5094447;28;19920;-79
2023/07/30 06:00:21;;;;;;;18.10;5.55;;;;;;;;;;5093702;28;20048;-78
2023/07/30 06:02:47;;;;;;;;;;;;;;;;;;5093576;28;20051;-78
2023/07/30 06:05:13;;;;;;;18.27;5.25;;;;;;;;;;5074268;28;19973;-79
2023/07/30 06:07:39;;;;;;;;;;;;;;;;;;5076316;28;20051;-78
2023/07/30 06:10:05;;;;;;;19.65;5.53;;;;;;;;;;5077185;28;19920;-78
2023/07/30 06:12:31;;;;;;;22.15;5.95;;;;;;;;;;5080769;28;20044;-78
2023/07/30 06:14:57;;;;;;;;;;;;;;;;;;5073879;28;20486;-79
2023/07/30 06:17:23;;;;;;;19.08;5.88;;;;;;;;;;5092822;28;19920;-79
2023/07/30 06:19:49;;;;;;;;;;;;;;;;;;5094821;28;20063;-78
2023/07/30 06:22:15;;;;;;;27.60;6.00;;;;;;;;;;5089752;28;19920;-78
2023/07/30 06:24:41;;;;;;;;;;;;;;;;;;5077486;28;20113;-78
2023/07/30 06:27:09;;;;;;;21.92;5.75;;;;;;;;;;5062682;28;19960;-83
2023/07/30 06:29:35;;;;;;;26.98;6.35;;;;;;;;;;5073455;28;20048;-79
2023/07/30 06:32:01;;;;;;;;;;;;;;;;;;5093054;28;20044;-79
2023/07/30 06:34:27;;;;;;;21.48;6.13;;;;;;;;;;5093355;28;19997;-79
2023/07/30 06:36:53;;;;;;;;;;;;;;;;;;5094281;28;20462;-78
2023/07/30 06:39:19;;;;;;;26.10;5.78;;;;;;;;;;5093310;28;19977;-79
2023/07/30 06:41:45;;;;;;;;;;;;;;;;;;5093272;28;20129;-78
2023/07/30 06:44:11;;;;;;;28.45;7.07;;;;;;;;;;5090264;28;19920;-79
2023/07/30 06:46:37;;;;;;;26.02;6.85;;;;;;;;;;5039980;28;20044;-78
2023/07/30 06:49:03;;;;;;;;;;;;;;;;;;5073723;28;20052;-78
2023/07/30 06:51:30;;;;;;;26.55;6.35;;;;;;;;;;5072599;28;20513;-78
2023/07/30 06:53:56;;;;;;;32.58;6.03;;;;;;;;;;5072849;28;20052;-78
2023/07/30 06:56:22;;;;;;;;;;;;;;;;;;5071192;28;20083;-78
2023/07/30 06:58:48;;;;;;;24.27;6.20;;;;;;;;;;5072871;28;19964;-78
2023/07/30 07:01:14;;;;;;;;;;;;;;;;;;5059036;28;20050;-79
2023/07/30 07:03:40;;;;;;;29.48;7.18;;;;;;;;;;5084368;28;19932;-78
2023/07/30 07:06:06;;;;;;;;;;;;;;;;;;5056665;28;20084;-78
2023/07/30 07:08:33;;;;;;;24.55;6.35;;;;;;;;;;5055387;28;20327;-78
2023/07/30 07:10:59;;;;;;;27.42;6.95;;;;;;;;;;5084814;28;20044;-79
2023/07/30 07:13:25;;;;;;;;;;;;;;;;;;5077551;28;20114;-78
2023/07/30 07:15:52;;;;;;;25.33;6.30;;;;;;;;;;5092806;28;19966;-76
2023/07/30 07:18:18;;;;;;;30.63;6.90;;;;;;;;;;5080051;28;20134;-75
2023/07/30 07:20:44;;;;;;;;;;;;;;;;;;5080418;28;20070;-73
2023/07/30 07:23:10;;;;;;;23.20;6.70;;;;;;;;;;5094518;28;19987;-74
2023/07/30 07:25:37;;;;;;;22.23;5.95;;;;;;;;;;5099057;28;20048;-75
2023/07/30 07:28:03;;;;;;;22.08;6.20;;;;;;;;;;5075478;28;20404;-79
2023/07/30 07:30:29;;;;;;;21.38;5.95;;;;;;;;;;5075570;28;20044;-76
2023/07/30 07:32:55;;;;;;;;;;;;;;;;;;5078827;28;20036;-76
2023/07/30 07:35:22;;;;;;;23.73;6.00;;;;;;;;;;5080992;28;19920;-76
2023/07/30 07:37:48;;;;;;;26.48;6.75;;;;;;;;;;5075008;28;20122;-75
2023/07/30 07:40:14;;;;;;;;;;;;;;;;;;5075090;28;20044;-81
2023/07/30 07:42:40;;;;;;;16.65;5.65;;;;;;;;;;5073660;28;19920;-75
2023/07/30 07:45:06;;;;;;;;;;;;;;;;;;5088477;28;20048;-75
2023/07/30 07:47:32;;;;;;;18.77;6.28;;;;;;;;;;5093273;28;19924;-76
2023/07/30 07:49:58;;;;;;;;;;;;;;;;;;5095559;28;20054;-75
2023/07/30 07:52:25;;;;;;;22.73;6.20;;;;;;;;;;5076934;28;19920;-75
2023/07/30 07:54:51;;;;;;;21.73;5.72;;;;;;;;;;5087636;28;20059;-75
2023/07/30 07:57:17;;;;;;;;;;;;;;;;;;5073342;28;20044;-81
2023/07/30 07:59:44;;;;;;;25.98;5.95;;;;;;;;;;5074697;28;19927;-75
2023/07/30 08:02:11;;;;;;;18.85;5.82;;;;;;;;;;5074218;28;20055;-76
2023/07/30 08:04:38;;;;;;;20.45;5.57;;;;;;;;;;5074122;28;20127;-75
2023/07/30 08:07:03;;;;;;;;;;;;;;;;;;5080216;28;20047;-75
2023/07/30 08:09:30;;;;;;;17.65;5.68;;;;;;;;;;5072624;28;19920;-75
2023/07/30 08:11:56;;;;;;;22.73;5.10;;;;;;;;;;5074776;28;20123;-75
2023/07/30 08:14:22;;;;;;;;;;;;;;;;;;5094042;28;20081;-75
2023/07/30 08:16:48;;;;;;;20.20;5.53;;;;;;;;;;5094189;28;19920;-79
2023/07/30 08:19:14;;;;;;;;;;;;;;;;;;5077812;28;20047;-79
2023/07/30 08:21:40;;;;;;;21.42;5.32;;;;;;;;;;5082850;28;19930;-79
2023/07/30 08:24:06;;;;;;;18.13;5.28;;;;;;;;;;5057885;28;20052;-80
2023/07/30 08:26:32;;;;;;;;;;;;;;;;;;5057618;28;20052;-80
2023/07/30 08:28:58;;;;;;;17.60;5.55;;;;;;;;;;5071373;28;20288;-76
2023/07/30 08:31:24;;;;;;;23.88;5.40;;;;;;;;;;5081403;28;20122;-79
2023/07/30 08:33:50;;;;;;;;;;;;;;;;;;5075124;28;20070;-79
2023/07/30 08:36:16;;;;;;;20.33;5.22;;;;;;;;;;5074675;28;19920;-80
2023/07/30 08:38:42;;;;;;;16.00;5.18;;;;;;;;;;5074319;28;20067;-79
2023/07/30 08:41:08;;;;;;;;;;;;;;;;;;5057307;28;20048;-80
2023/07/30 08:43:35;;;;;;;13.48;4.43;;;;;;;;;;5074172;28;19931;-81
2023/07/30 08:46:01;;;;;;;25.45;5.15;;;;;;;;;;5081506;28;20480;-78
2023/07/30 08:48:27;;;;;;;17.60;4.63;;;;;;;;;;5072275;28;20085;-80
2023/07/30 08:50:53;;;;;;;;;;;;;;;;;;5045179;28;20046;-79
2023/07/30 08:53:19;;;;;;;16.65;4.63;;;;;;;;;;5086792;28;19920;-84
2023/07/30 08:55:45;;;;;;;;;;;;;;;;;;5064415;28;20050;-80
2023/07/30 08:58:12;;;;;;;17.75;4.35;;;;;;;;;;5074698;28;20272;-78
2023/07/30 09:00:41;;;;;;;19.77;4.53;;;;;;;;;;5080384;28;20370;-79
2023/07/30 09:03:07;;;;;;;16.60;4.40;;;;;;;;;;5074732;28;20128;-79
2023/07/30 09:05:33;;;;;;;22.15;5.00;;;;;;;;;;5074219;28;20067;-78
2023/07/30 09:07:59;;;;;;;;;;;;;;;;;;5058961;28;20151;-79
2023/07/30 09:10:26;;;;;;;17.98;4.85;;;;;;;;;;5073282;28;20405;-80
2023/07/30 09:12:54;;;;;;;10.93;4.80;;;;;;;;;;5081629;28;20051;-74
2023/07/30 09:15:29;;;;;;;17.60;4.55;;;;;;;;;;5077589;28;20060;-75
2023/07/30 09:17:56;;;;;;;18.88;4.70;;;;;;;;;;5094545;28;20089;-75
2023/07/30 09:20:22;;;;;;;20.80;4.90;;;;;;;;;;5111609;28;20062;-81
2023/07/30 09:22:49;;;;;;;16.50;4.47;;;;;;;;;;5076306;28;20101;-75
2023/07/30 09:25:20;;;;;;;17.83;4.95;;;;;;;;;;5072036;28;20393;-79
2023/07/30 09:27:49;;;;;;;15.45;4.57;;;;;;;;;;5073938;28;20060;-76
2023/07/30 09:30:15;;;;;;;17.48;4.18;;;;;;;;;;5059512;28;20055;-75
2023/07/30 09:32:41;;;;;;;;;;;;;;;;;;5105873;28;20067;-77
2023/07/30 09:35:11;;;;;;;16.65;4.68;;;;;;;;;;5090801;28;19923;-77
2023/07/30 09:37:38;;;;;;;16.55;5.18;;;;;;;;;;5079404;28;20093;-77
2023/07/30 09:40:08;;;;;;;15.38;4.75;;;;;;;;;;5082589;28;20044;-76
2023/07/30 09:42:37;;;;;;;16.48;4.50;;;;;;;;;;5080196;28;20112;-76
2023/07/30 09:45:04;;;;;;;18.58;4.90;;;;;;;;;;5068857;28;20044;-77
2023/07/30 09:47:35;;;;;;;17.25;5.18;;;;;;;;;;5082042;28;20040;-75
2023/07/30 09:50:02;;;;;;;20.05;5.22;;;;;;;;;;5080831;28;20065;-76
2023/07/30 09:52:28;;;;;;;18.90;5.75;;;;;;;;;;5064221;28;20101;-78
2023/07/30 09:54:55;;;;;;;16.70;5.68;;;;;;;;;;5078228;28;20070;-76
2023/07/30 09:57:21;;;;;;;19.20;5.40;;;;;;;;;;5063338;28;20083;-76
2023/07/30 09:59:47;;;;;;;;;;;;;;;;;;5074575;28;20044;-76
2023/07/30 10:02:13;;;;;;;18.20;6.50;;;;;;;;;;5089054;28;19931;-75
2023/07/30 10:04:43;;;;;;;21.95;6.85;;;;;;;;;;5072015;28;20059;-75
2023/07/30 10:07:13;;;;;;;20.20;5.68;;;;;;;;;;5089929;28;20555;-75
2023/07/30 10:09:43;;;;;;;17.45;5.53;;;;;;;;;;5072280;28;20104;-75
2023/07/30 10:12:21;;;;;;;18.23;4.65;;;;;;;;;;5072123;28;20044;-74
2023/07/30 10:14:47;;;;;;;16.42;5.18;;;;;;;;;;5100403;28;20500;-74
2023/07/30 10:17:13;;;;;;;11.45;4.65;;;;;;;;;;5091966;28;20110;-78
2023/07/30 10:19:39;;;;;;;;;;;;;;;;;;5072093;28;20048;-78
2023/07/30 10:22:11;;;;;;;11.57;3.80;;;;;;;;;;5072145;28;20027;-78
2023/07/30 10:24:38;;;;;;;12.10;3.17;;;;;;;;;;5071742;28;20074;-79
2023/07/30 10:27:08;;;;;;;10.43;2.90;;;;;;;;;;5042043;28;20177;-78
2023/07/30 10:29:41;;;;;;;9.77;2.85;;;;;;;;;;5092284;28;20062;-78
2023/07/30 10:32:08;;;;;;;12.40;3.15;;;;;;;;;;5095547;28;20143;-78
2023/07/30 10:34:47;;;;;;;10.32;3.00;;;;;;;;;;5089435;28;20051;-78
2023/07/30 10:37:21;;;;;;;9.23;2.45;;;;;;;;;;5065639;28;20136;-78
2023/07/30 10:39:50;;;;;;;5.13;2.03;;;;;;;;;;5082616;28;20107;-78
2023/07/30 10:42:18;;;;;;;6.50;2.10;;;;;;;;;;5078576;28;20094;-78
2023/07/30 10:44:45;;;;;;;9.88;2.50;;;;;;;;;;5046624;28;20153;-79
2023/07/30 10:47:11;;;;;;;7.80;2.20;;;;;;;;;;5073312;28;20044;-79
2023/07/30 10:49:40;;;;;;;6.57;1.83;;;;;;;;;;5083586;28;20050;-79
2023/07/30 10:52:07;;;;;;;7.57;2.00;;;;;;;;;;5081367;28;20051;-78
2023/07/30 10:54:36;;;;;;;6.43;1.90;;;;;;;;;;5067780;28;20491;-80
2023/07/30 10:57:03;;;;;;;8.45;2.03;;;;;;;;;;5073398;28;20055;-81
2023/07/30 10:59:38;;;;;;;6.85;2.00;;;;;;;;;;5075397;28;20059;-81
2023/07/30 11:02:05;;;;;;;5.45;2.00;;;;;;;;;;5088661;28;20420;-82
2023/07/30 11:04:34;;;;;;;7.28;2.20;;;;;;;;;;5067886;28;20092;-82
2023/07/30 11:07:00;;;;;;;8.43;2.70;;;;;;;;;;5081502;28;20039;-82
2023/07/30 11:09:27;;;;;;;7.97;2.50;;;;;;;;;;5080836;28;20059;-83
2023/07/30 11:11:54;;;;;;;10.52;2.88;;;;;;;;;;5060065;28;20043;-82
2023/07/30 11:14:22;;;;;;;8.38;2.50;;;;;;;;;;5071325;28;20055;-82
2023/07/30 11:16:49;;;;;;;8.10;2.72;;;;;;;;;;5079026;28;20423;-73
2023/07/30 11:19:16;;;;;;;15.63;2.42;;;;;;;;;;5111889;28;20043;-74
2023/07/30 11:21:48;;;;;;;10.27;2.22;;;;;;;;;;5094837;28;20085;-74
2023/07/30 11:24:15;;;;;;;11.23;2.25;;;;;;;;;;5092985;28;20054;-86
2023/07/30 11:26:41;;;;;;;10.27;2.17;;;;;;;;;;5058614;28;20044;-87
2023/07/30 11:29:16;;;;;;;7.97;2.20;;;;;;;;;;5088474;28;20100;-86
2023/07/30 11:31:44;;;;;;;8.65;2.88;;;;;;;;;;5076724;28;20088;-85
2023/07/30 11:34:10;;;;;;;13.80;2.65;;;;;;;;;;5076502;28;20051;-85
2023/07/30 11:36:36;;;;;;;12.20;2.60;;;;;;;;;;5075833;28;20066;-88
2023/07/30 11:39:02;;;;;;;9.57;2.03;;;;;;;;;;5076278;28;20136;-84
2023/07/30 11:41:29;;;;;;;12.60;2.47;;;;;;;;;;5079953;28;20445;-85
2023/07/30 11:43:55;;;;;;;9.10;2.25;;;;;;;;;;5062859;28;20130;-84
2023/07/30 11:46:25;;;;;;;6.20;2.10;;;;;;;;;;5061696;28;20073;-85
2023/07/30 11:48:53;;;;;;;9.98;2.40;;;;;;;;;;5083329;28;20392;-85
2023/07/30 11:51:25;;;;;;;11.27;2.78;;;;;;;;;;5081452;28;20044;-84
2023/07/30 11:53:59;;;;;;;8.50;1.73;;;;;;;;;;5078265;28;20043;-83
2023/07/30 11:56:28;;;;;;;5.82;1.60;;;;;;;;;;5076223;28;20130;-88
2023/07/30 11:58:58;;;;;;;8.95;1.95;;;;;;;;;;5049392;28;20044;-84
2023/07/30 12:01:26;;;;;;;8.90;1.80;;;;;;;;;;5059476;28;20040;-84
2023/07/30 12:03:59;;;;;;;6.90;1.45;;;;;;;;;;5069548;28;20076;-84
2023/07/30 12:06:38;;;;;;;7.68;1.70;;;;;;;;;;5091408;28;20093;-84
2023/07/30 12:09:10;;;;;;;7.55;1.70;;;;;;;;;;5089307;28;20082;-85
2023/07/30 12:11:44;;;;;;;6.43;1.95;;;;;;;;;;5075180;28;20068;-85
2023/07/30 12:14:10;;;;;;;11.90;1.63;;;;;;;;;;5075511;28;20063;-83
2023/07/30 12:16:37;;;;;;;7.00;1.58;;;;;;;;;;5070959;28;20055;-86
2023/07/30 12:19:03;;;;;;;9.43;1.85;;;;;;;;;;5068246;28;20546;-78
2023/07/30 12:21:29;;;;;;;7.35;1.70;;;;;;;;;;5088921;28;20072;-86
2023/07/30 12:23:55;;;;;;;9.13;2.13;;;;;;;;;;5072177;28;20397;-84
2023/07/30 12:26:21;;;;;;;7.55;1.90;;;;;;;;;;5095619;28;20370;-83
2023/07/30 12:28:47;;;;;;;8.30;1.63;;;;;;;;;;5082122;28;20047;-84
2023/07/30 12:31:14;;;;;;;6.65;1.48;;;;;;;;;;5049228;28;20047;-83
2023/07/30 12:33:40;;;;;;;10.48;1.77;;;;;;;;;;5048900;28;20059;-83
2023/07/30 12:36:06;;;;;;;6.95;2.10;;;;;;;;;;5078550;28;20176;-83
2023/07/30 12:38:32;;;;;;;9.27;1.80;;;;;;;;;;5078808;28;20044;-84
2023/07/30 12:40:58;;;;;;;5.65;1.40;;;;;;;;;;5071411;28;20412;-84
2023/07/30 12:43:24;;;;;;;8.77;1.60;;;;;;;;;;5064791;28;20079;-84
2023/07/30 12:45:50;;;;;;;9.77;1.80;;;;;;;;;;5055478;28;20039;-84
2023/07/30 12:48:16;;;;;;;10.70;1.80;;;;;;;;;;5058644;28;20469;-84
2023/07/30 12:50:42;;;;;;;11.68;1.50;;;;;;;;;;5080858;28;20081;-84
2023/07/30 12:53:08;;;;;;;8.15;1.67;;;;;;;;;;5081834;28;20040;-82
2023/07/30 12:55:34;;;;;;;7.15;1.85;;;;;;;;;;5056405;28;20079;-83
2023/07/30 12:58:01;;;;;;;10.55;1.67;;;;;;;;;;5079913;28;20048;-83
2023/07/30 13:00:27;;;;;;;10.55;1.88;;;;;;;;;;5077642;28;20047;-83
2023/07/30 13:02:55;;;;;;;6.30;1.40;;;;;;;;;;5080510;28;20496;-82
2023/07/30 13:05:22;;;;;;;7.07;1.55;;;;;;;;;;5059365;28;20052;-86
2023/07/30 13:07:48;;;;;;;8.25;1.63;;;;;;;;;;5057873;28;20059;-85
2023/07/30 13:10:14;;;;;;;10.68;1.88;;;;;;;;;;5056961;28;20047;-89
2023/07/30 13:12:41;;;;;;;6.82;1.52;;;;;;;;;;5087882;28;20044;-84
2023/07/30 13:15:08;;;;;;;10.20;1.50;;;;;;;;;;5063873;28;20044;-88
2023/07/30 13:17:34;;;;;;;10.10;1.50;;;;;;;;;;5079178;28;20051;-83
2023/07/30 13:20:00;;;;;;;8.23;1.65;;;;;;;;;;5078932;28;20047;-84
2023/07/30 13:22:27;;;;;;;8.98;1.70;;;;;;;;;;5072456;28;20048;-85
2023/07/30 13:24:53;;;;;;;9.50;1.83;;;;;;;;;;5084446;28;20480;-85
2023/07/30 13:27:19;;;;;;;10.88;1.80;;;;;;;;;;5080021;28;20130;-84
2023/07/30 13:29:46;;;;;;;9.57;1.90;;;;;;;;;;5078524;28;20477;-84
2023/07/30 13:32:12;;;;;;;8.00;1.83;;;;;;;;;;5066622;28;20032;-84
2023/07/30 13:34:39;;;;;;;;;;;;;;;;;;5087541;28;20047;-85
2023/07/30 13:37:05;;;;;;;10.50;2.03;;;;;;;;;;5076908;28;20002;-85
2023/07/30 13:39:31;;;;;;;7.90;2.05;;;;;;;;;;5086735;28;20041;-85
2023/07/30 13:41:57;;;;;;;7.97;1.67;;;;;;;;;;5074185;28;20056;-84
2023/07/30 13:44:23;;;;;;;10.30;1.77;;;;;;;;;;5074301;28;20055;-82
2023/07/30 13:46:50;;;;;;;10.32;2.10;;;;;;;;;;5082213;28;20134;-89
2023/07/30 13:49:16;;;;;;;9.52;2.00;;;;;;;;;;5092796;28;20050;-82
2023/07/30 13:51:42;;;;;;;7.78;1.67;;;;;;;;;;5082783;28;20043;-81
2023/07/30 13:54:08;;;;;;;6.07;2.00;;;;;;;;;;5093654;28;20052;-85
2023/07/30 13:56:35;;;;;;;7.93;1.75;;;;;;;;;;5074013;28;20051;-82
2023/07/30 13:59:01;;;;;;;7.45;1.70;;;;;;;;;;5089568;28;20438;-83
2023/07/30 14:01:27;;;;;;;8.80;1.65;;;;;;;;;;5083186;28;20056;-80
2023/07/30 14:03:53;;;;;;;7.97;1.95;;;;;;;;;;5080578;28;20417;-82
2023/07/30 14:06:19;;;;;;;9.38;1.80;;;;;;;;;;5090484;28;20489;-84
2023/07/30 14:08:45;;;;;;;6.80;1.90;;;;;;;;;;5083733;28;20044;-80
2023/07/30 14:11:11;;;;;;;8.38;1.85;;;;;;;;;;5058960;28;20127;-81
2023/07/30 14:13:37;;;;;;;10.40;1.65;;;;;;;;;;5055287;28;20055;-80
2023/07/30 14:16:04;;;;;;;7.35;1.60;;;;;;;;;;5080648;28;20135;-81
2023/07/30 14:18:30;;;;;;;7.28;1.55;;;;;;;;;;5079100;28;20051;-84
2023/07/30 14:20:56;;;;;;;10.02;1.42;;;;;;;;;;5090032;28;20083;-81
2023/07/30 14:23:22;;;;;;;6.60;1.58;;;;;;;;;;5073981;28;20036;-83
2023/07/30 14:25:48;;;;;;;7.00;1.60;;;;;;;;;;5069129;28;20047;-82
2023/07/30 14:28:15;;;;;;;9.43;1.60;;;;;;;;;;5084052;28;20478;-82
2023/07/30 14:30:44;;;;;;;7.70;2.22;;;;;;;;;;5073288;28;20078;-81
2023/07/30 14:33:10;;;;;;;9.00;1.70;;;;;;;;;;5077233;28;20439;-82
2023/07/30 14:35:38;;;;;;;7.97;1.60;;;;;;;;;;5097734;28;20048;-81
2023/07/30 14:38:04;;;;;;;5.10;1.40;;;;;;;;;;5080555;28;20054;-82
2023/07/30 14:40:31;;;;;;;4.88;1.40;;;;;;;;;;5082574;28;20040;-82
2023/07/30 14:42:57;;;;;;;4.93;1.23;;;;;;;;;;5084866;28;20179;-83
2023/07/30 14:45:23;;;;;;;7.32;1.58;;;;;;;;;;5063292;28;20044;-81
2023/07/30 14:47:49;;;;;;;6.00;1.20;;;;;;;;;;5080371;28;20043;-81
2023/07/30 14:50:15;;;;;;;10.48;1.70;;;;;;;;;;5081333;28;20615;-83
2023/07/30 14:52:41;;;;;;;;;;;;;;;;;;5076251;28;20522;-82
2023/07/30 14:55:08;;;;;;;6.72;1.40;;;;;;;;;;5077045;28;19966;-83